createdAt,value
2019-03-21T00:01:42.870Z,16.57
2019-03-21T00:05:48.597Z,15.70
2019-03-21T00:10:31.922Z,13.63
2019-03-21T00:15:34.282Z,16.53
2019-03-21T00:19:40.043Z,16.40
2019-03-21T00:23:45.875Z,14.70
2019-03-21T00:27:51.549Z,15.17
2019-03-21T00:31:57.255Z,13.93
2019-03-21T00:36:14.302Z,15.30
2019-03-21T00:40:26.005Z,18.20
2019-03-21T00:44:31.764Z,19.43
2019-03-21T00:48:37.706Z,16.03
2019-03-21T00:52:43.581Z,16.37
2019-03-21T00:56:51.119Z,14.63
2019-03-21T01:00:57.375Z,17.27
2019-03-21T01:05:03.093Z,17.33
2019-03-21T01:09:10.542Z,17.07
2019-03-21T01:13:16.472Z,17.33
2019-03-21T01:17:41.494Z,13.83
2019-03-21T01:22:07.638Z,16.73
2019-03-21T01:26:13.395Z,16.10
2019-03-21T01:30:19.192Z,16.50
2019-03-21T01:34:25.318Z,14.53
2019-03-21T01:38:31.075Z,13.10
2019-03-21T01:42:36.882Z,16.23
2019-03-21T01:46:42.644Z,16.20
2019-03-21T01:50:48.409Z,18.60
2019-03-21T01:54:54.267Z,13.37
2019-03-21T01:59:05.364Z,15.90
2019-03-21T02:03:10.997Z,15.97
2019-03-21T02:07:16.658Z,20.87
2019-03-21T02:11:22.532Z,18.57
2019-03-21T02:15:31.462Z,18.60
2019-03-21T02:19:37.766Z,19.10
2019-03-21T02:23:43.505Z,19.67
2019-03-21T02:27:49.200Z,15.77
2019-03-21T02:31:54.838Z,15.60
2019-03-21T02:36:00.589Z,13.73
2019-03-21T02:40:08.362Z,17.93
2019-03-21T02:44:14.207Z,17.90
2019-03-21T02:48:20.145Z,19.73
2019-03-21T02:52:25.792Z,17.90
2019-03-21T02:56:31.557Z,16.07
2019-03-21T03:00:37.228Z,19.20
2019-03-21T03:04:43.006Z,19.37
2019-03-21T03:08:49.105Z,15.90
2019-03-21T03:12:54.717Z,19.50
2019-03-21T03:17:06.522Z,20.37
2019-03-21T03:21:12.259Z,21.13
2019-03-21T03:25:18.011Z,20.37
2019-03-21T03:29:23.667Z,20.43
2019-03-21T03:33:29.442Z,15.67
2019-03-21T03:37:54.010Z,17.13
2019-03-21T03:41:59.631Z,17.50
2019-03-21T03:46:24.131Z,17.23
2019-03-21T03:50:40.822Z,20.63
2019-03-21T03:54:46.634Z,24.40
2019-03-21T03:58:53.066Z,23.73
2019-03-21T04:02:58.765Z,24.57
2019-03-21T04:07:23.586Z,23.53
2019-03-21T04:11:29.366Z,22.87
2019-03-21T04:15:51.228Z,21.83
2019-03-21T04:19:49.551Z,23.03
2019-03-21T04:23:55.183Z,21.30
2019-03-21T04:28:01.467Z,23.53
2019-03-21T04:32:07.126Z,25.77
2019-03-21T04:36:12.789Z,19.10
2019-03-21T04:40:21.458Z,23.47
2019-03-21T04:44:27.244Z,23.20
2019-03-21T04:52:49.762Z,21.43
2019-03-21T04:56:55.672Z,20.07
2019-03-21T05:01:03.560Z,19.97
2019-03-21T05:05:28.425Z,21.50
2019-03-21T05:09:34.153Z,18.53
2019-03-21T05:13:39.854Z,17.60
2019-03-21T05:17:46.475Z,18.07
2019-03-21T05:22:11.026Z,19.70
2019-03-21T05:26:35.486Z,18.87
2019-03-21T05:30:44.607Z,17.00
2019-03-21T05:34:50.336Z,15.77
2019-03-21T05:38:56.353Z,15.43
2019-03-21T05:43:22.690Z,17.10
2019-03-21T05:47:39.270Z,17.83
2019-03-21T05:51:45.045Z,16.10
2019-03-21T05:55:50.743Z,29.43
2019-03-21T05:59:56.475Z,16.50
2019-03-21T06:04:02.310Z,16.53
2019-03-21T06:08:28.451Z,15.90
2019-03-21T06:17:30.931Z,14.47
2019-03-21T06:22:09.390Z,16.03
2019-03-21T06:26:37.542Z,18.43
2019-03-21T06:35:44.665Z,17.73
2019-03-21T06:40:32.986Z,22.13
2019-03-21T06:44:40.420Z,17.57
2019-03-21T06:48:46.086Z,20.10
2019-03-21T06:52:51.808Z,18.87
2019-03-21T07:01:20.689Z,15.43
2019-03-21T07:05:40.711Z,16.60
2019-03-21T07:23:07.679Z,13.77
2019-03-21T07:27:32.616Z,13.40
2019-03-21T07:31:38.380Z,13.13
2019-03-21T07:35:44.073Z,13.73
2019-03-21T07:39:49.813Z,12.50
2019-03-21T07:43:55.629Z,12.50
2019-03-21T07:48:01.233Z,11.60
2019-03-21T07:52:06.878Z,12.20
2019-03-21T07:56:12.518Z,12.33
2019-03-21T08:00:33.925Z,12.43
2019-03-21T08:04:39.595Z,13.50
2019-03-21T08:08:45.377Z,13.53
2019-03-21T08:12:51.065Z,13.50
2019-03-21T08:16:59.893Z,13.97
2019-03-21T08:21:05.624Z,13.43
2019-03-21T08:25:11.351Z,13.27
2019-03-21T08:29:18.438Z,12.40
2019-03-21T08:33:24.148Z,12.50
2019-03-21T08:37:29.924Z,12.47
2019-03-21T08:41:35.692Z,12.13
2019-03-21T08:45:41.436Z,12.63
2019-03-21T08:49:53.248Z,11.57
2019-03-21T08:53:57.712Z,11.27
2019-03-21T08:58:03.542Z,10.90
2019-03-21T09:02:09.212Z,11.67
2019-03-21T09:06:15.628Z,14.70
2019-03-21T09:10:27.170Z,12.60
2019-03-21T09:14:32.961Z,13.47
2019-03-21T09:18:39.990Z,13.10
2019-03-21T09:22:45.740Z,12.40
2019-03-21T09:26:51.388Z,13.03
2019-03-21T09:30:59.574Z,13.55
2019-03-21T09:35:05.619Z,12.23
2019-03-21T09:39:11.321Z,13.30
2019-03-21T09:43:17.024Z,10.63
2019-03-21T09:47:23.136Z,9.17
2019-03-21T09:51:31.066Z,11.10
2019-03-21T09:55:45.839Z,11.10
2019-03-21T09:59:51.709Z,9.33
2019-03-21T10:03:57.785Z,11.95
2019-03-21T10:08:03.712Z,9.93
2019-03-21T10:12:09.325Z,10.23
2019-03-21T10:20:46.115Z,10.25
2019-03-21T10:24:51.848Z,12.28
2019-03-21T10:28:57.648Z,8.75
2019-03-21T10:33:03.785Z,7.85
2019-03-21T10:37:09.497Z,7.42
2019-03-21T10:41:15.237Z,7.72
2019-03-21T10:45:20.899Z,6.90
2019-03-21T10:49:26.595Z,7.73
2019-03-21T10:53:32.639Z,8.07
2019-03-21T10:57:38.413Z,7.83
2019-03-21T11:01:44.202Z,6.53
2019-03-21T11:05:49.945Z,6.80
2019-03-21T11:09:55.840Z,5.87
2019-03-21T11:14:01.555Z,6.75
2019-03-21T11:18:07.239Z,6.72
2019-03-21T11:22:13.061Z,6.33
2019-03-21T11:26:37.592Z,5.60
2019-03-21T11:30:44.639Z,5.25
2019-03-21T11:34:50.306Z,5.60
2019-03-21T11:38:58.093Z,5.40
2019-03-21T11:43:08.558Z,6.58
2019-03-21T11:47:14.290Z,6.72
2019-03-21T11:51:20.089Z,6.03
2019-03-21T11:55:28.077Z,6.12
2019-03-21T11:59:46.476Z,6.10
2019-03-21T12:03:47.204Z,5.10
2019-03-21T12:07:53.222Z,5.50
2019-03-21T12:11:58.924Z,5.58
2019-03-21T12:16:04.719Z,4.92
2019-03-21T12:20:10.653Z,6.17
2019-03-21T12:24:16.385Z,5.62
2019-03-21T12:28:24.285Z,5.33
2019-03-21T12:32:36.814Z,5.62
2019-03-21T12:36:42.452Z,7.00
2019-03-21T12:40:48.170Z,6.22
2019-03-21T12:44:53.786Z,6.37
2019-03-21T12:48:59.518Z,6.05
2019-03-21T12:53:05.391Z,6.22
2019-03-21T12:57:11.044Z,6.20
2019-03-21T13:01:16.746Z,6.67
2019-03-21T13:05:29.071Z,6.05
2019-03-21T13:09:34.717Z,6.80
2019-03-21T13:13:40.496Z,7.17
2019-03-21T13:17:46.223Z,7.00
2019-03-21T13:21:51.934Z,6.08
2019-03-21T13:25:57.673Z,7.70
2019-03-21T13:30:03.930Z,6.90
2019-03-21T13:34:10.447Z,7.28
2019-03-21T13:42:50.155Z,7.70
2019-03-21T13:46:55.844Z,8.05
2019-03-21T13:51:01.834Z,8.48
2019-03-21T13:59:26.692Z,7.10
2019-03-21T14:03:32.443Z,6.97
2019-03-21T14:07:38.301Z,7.03
2019-03-21T14:11:43.944Z,7.03
2019-03-21T14:16:00.491Z,7.22
2019-03-21T14:20:07.327Z,5.95
2019-03-21T14:24:13.084Z,6.40
2019-03-21T14:28:18.986Z,5.95
2019-03-21T14:32:24.939Z,6.35
2019-03-21T14:36:33.009Z,7.20
2019-03-21T14:40:39.275Z,7.53
2019-03-21T14:44:45.318Z,7.03
2019-03-21T14:48:51.625Z,7.55
2019-03-21T14:52:58.214Z,7.35
2019-03-21T14:57:03.988Z,7.00
2019-03-21T15:01:09.815Z,7.10
2019-03-21T15:05:26.247Z,7.15
2019-03-21T15:09:31.914Z,7.03
2019-03-21T15:13:37.642Z,7.90
2019-03-21T15:17:43.423Z,8.05
2019-03-21T15:21:49.111Z,8.03
2019-03-21T15:25:54.953Z,7.10
2019-03-21T15:30:01.106Z,6.85
2019-03-21T15:34:08.340Z,7.80
2019-03-21T15:38:14.019Z,6.80
2019-03-21T15:42:19.727Z,6.62
2019-03-21T15:46:25.409Z,6.12
2019-03-21T15:50:33.020Z,7.30
2019-03-21T15:54:38.762Z,7.70
2019-03-21T15:58:45.161Z,8.08
2019-03-21T16:02:50.955Z,8.48
2019-03-21T16:06:56.575Z,7.25
2019-03-21T16:11:02.220Z,7.35
2019-03-21T16:15:09.309Z,7.22
2019-03-21T16:19:15.016Z,7.67
2019-03-21T16:23:20.678Z,7.62
2019-03-21T16:27:26.322Z,7.97
2019-03-21T16:31:31.960Z,7.92
2019-03-21T16:35:37.646Z,7.37
2019-03-21T16:39:43.258Z,8.05
2019-03-21T16:43:48.886Z,7.47
2019-03-21T16:47:54.622Z,7.15
2019-03-21T16:52:00.389Z,7.92
2019-03-21T16:56:06.374Z,8.28
2019-03-21T17:00:51.430Z,8.65
2019-03-21T17:05:15.905Z,8.68
2019-03-21T17:09:21.639Z,9.95
2019-03-21T17:13:27.400Z,8.08
2019-03-21T17:17:33.122Z,8.33
2019-03-21T17:21:38.831Z,8.23
2019-03-21T17:25:44.570Z,8.53
2019-03-21T17:29:50.197Z,7.97
2019-03-21T17:33:55.863Z,10.82
2019-03-21T17:42:21.636Z,10.35
2019-03-21T17:46:27.370Z,9.85
2019-03-21T17:50:33.029Z,10.60
2019-03-21T17:54:41.817Z,9.53
2019-03-21T18:07:47.246Z,8.08
2019-03-21T18:11:52.921Z,8.78
2019-03-21T18:15:58.667Z,9.73
2019-03-21T18:20:24.914Z,17.52
2019-03-21T18:24:30.686Z,8.08
2019-03-21T18:28:36.332Z,8.90
2019-03-21T18:32:42.072Z,9.20
2019-03-21T18:36:47.812Z,7.30
2019-03-21T18:40:53.530Z,7.55
2019-03-21T18:49:16.659Z,9.35
2019-03-21T18:53:22.344Z,9.13
2019-03-21T18:57:28.081Z,43.35
2019-03-21T19:01:34.374Z,10.65
2019-03-21T19:05:58.951Z,10.45
2019-03-21T19:10:05.632Z,10.13
2019-03-21T19:14:11.402Z,9.87
2019-03-21T19:18:17.118Z,9.60
2019-03-21T19:22:22.822Z,9.23
2019-03-21T19:26:28.710Z,9.20
2019-03-21T19:30:34.449Z,9.77
2019-03-21T19:34:40.185Z,10.17
2019-03-21T19:38:45.814Z,10.20
2019-03-21T19:47:29.858Z,8.23
2019-03-21T19:51:36.121Z,9.23
2019-03-21T19:55:41.868Z,9.70
2019-03-21T19:59:47.660Z,9.10
2019-03-21T20:03:53.332Z,10.13
2019-03-21T20:07:59.111Z,8.87
2019-03-21T20:12:05.008Z,13.57
2019-03-21T20:16:10.938Z,11.30
2019-03-21T20:20:17.080Z,11.33
2019-03-21T20:24:24.366Z,14.83
2019-03-21T20:28:30.192Z,15.20
2019-03-21T20:32:35.955Z,16.70
2019-03-21T20:36:41.679Z,15.57
2019-03-21T20:40:47.496Z,16.97
2019-03-21T20:44:53.192Z,17.07
2019-03-21T20:48:56.714Z,18.33
2019-03-21T20:53:02.610Z,17.77
2019-03-21T20:57:08.431Z,19.77
2019-03-21T21:01:14.264Z,16.80
2019-03-21T21:05:22.799Z,18.57
2019-03-21T21:09:32.764Z,20.50
2019-03-21T21:13:38.481Z,20.87
2019-03-21T21:17:44.231Z,23.43
2019-03-21T21:26:19.926Z,20.17
2019-03-21T21:30:38.040Z,24.70
2019-03-21T21:34:38.624Z,24.83
2019-03-21T21:38:44.379Z,23.33
2019-03-21T21:42:50.141Z,22.67
2019-03-21T21:51:12.974Z,23.97
2019-03-21T21:59:57.651Z,25.93
2019-03-21T22:04:05.011Z,31.87
2019-03-21T22:08:16.250Z,29.90
2019-03-21T22:12:21.887Z,28.83
2019-03-21T22:16:28.084Z,30.10
2019-03-21T22:20:33.722Z,30.77
2019-03-21T22:24:39.412Z,31.37
2019-03-21T22:28:45.108Z,31.23
2019-03-21T22:32:50.716Z,28.80
2019-03-21T22:36:56.487Z,28.20
2019-03-21T22:41:03.884Z,33.10
2019-03-21T22:49:47.630Z,30.47
2019-03-21T22:53:53.410Z,33.40
2019-03-21T22:57:59.289Z,36.73
2019-03-21T23:06:21.613Z,35.03
2019-03-21T23:10:27.285Z,39.07
2019-03-21T23:14:33.005Z,40.80
2019-03-21T23:18:38.649Z,45.40
2019-03-21T23:22:44.581Z,52.10
2019-03-21T23:26:53.153Z,49.27
2019-03-21T23:31:16.716Z,40.50
2019-03-21T23:35:41.219Z,50.10
2019-03-21T23:39:46.883Z,43.33
2019-03-21T23:43:52.617Z,47.37
2019-03-21T23:48:09.358Z,50.13
2019-03-21T23:52:15.034Z,45.53
2019-03-21T23:56:20.684Z,41.63
